Time;durP1;ratioP1;P1;durP2;ratioP2;P2;SDS_P1;SDS_P2;PMS_P1;PMS_P2;Temp;Humidity;BMP_temperature;BMP_pressure;BME280_temperature;BME280_humidity;BME280_pressure;Samples;Min_cycle;Max_cycle;Signal;HPM_P1;HPM_P2
2023/02/05 00:01:12;;;;;;;31.57;18.30;;;;;;;7.51;57.50;99431.13;5016935;28;20272;-69
2023/02/05 00:03:38;;;;;;;28.43;15.23;;;;;;;7.64;57.54;99431.38;5020098;28;20306;-71
2023/02/05 00:06:04;;;;;;;24.70;15.30;;;;;;;7.68;57.25;99427.69;5003358;28;21305;-71
2023/02/05 00:08:30;;;;;;;28.77;16.70;;;;;;;7.73;57.37;99430.88;4999114;28;20725;-71
2023/02/05 00:11:06;;;;;;;27.60;16.50;;;;;;;7.68;57.22;99431.13;5020314;28;20200;-70
2023/02/05 00:13:39;;;;;;;27.60;16.20;;;;;;;7.65;57.40;99431.28;5004255;28;20518;-68
2023/02/05 00:16:08;;;;;;;32.17;16.30;;;;;;;7.59;57.41;99439.44;5004104;28;20438;-71
2023/02/05 00:18:33;;;;;;;38.47;17.97;;;;;;;7.65;57.58;99428.66;5019564;28;20508;-70
2023/02/05 00:20:59;;;;;;;30.63;15.23;;;;;;;7.65;57.77;99417.38;5020627;28;20933;-70
2023/02/05 00:23:24;;;;;;;22.83;13.47;;;;;;;7.67;57.53;99411.16;5023081;28;20226;-72
2023/02/05 00:25:49;;;;;;;21.00;11.97;;;;;;;7.63;57.77;99416.63;5024749;28;20198;-71
2023/02/05 00:28:15;;;;;;;27.10;15.20;;;;;;;7.59;57.37;99417.69;5007569;28;20357;-71
2023/02/05 00:30:40;;;;;;;27.97;14.40;;;;;;;7.64;58.46;99410.47;5017400;28;20282;-70
2023/02/05 00:33:06;;;;;;;23.93;13.53;;;;;;;7.66;57.61;99408.63;5004285;28;20682;-68
2023/02/05 00:35:31;;;;;;;20.50;11.30;;;;;;;7.67;57.95;99400.72;5019579;28;20211;-71
2023/02/05 00:37:57;;;;;;;23.07;12.70;;;;;;;7.65;57.63;99396.50;5017809;28;20219;-70
2023/02/05 00:40:22;;;;;;;21.00;12.13;;;;;;;7.64;57.75;99398.25;5015854;28;20267;-68
2023/02/05 00:42:48;;;;;;;26.23;12.43;;;;;;;7.52;58.11;99402.38;5021611;28;20453;-68
2023/02/05 00:45:13;;;;;;;26.17;12.07;;;;;;;7.42;58.56;99395.94;5020944;28;20184;-69
2023/02/05 00:47:39;;;;;;;22.57;12.10;;;;;;;7.59;58.51;99402.91;5005388;28;20208;-69
2023/02/05 00:50:04;;;;;;;22.70;10.67;;;;;;;7.67;58.14;99399.88;5016721;28;20189;-73
2023/02/05 00:52:30;;;;;;;17.37;9.30;;;;;;;7.74;57.77;99403.84;5023709;28;20341;-70
2023/02/05 00:54:55;;;;;;;19.57;10.20;;;;;;;7.76;57.54;99409.84;5020847;28;20237;-69
2023/02/05 00:57:23;;;;;;;13.20;9.10;;;;;;;7.81;57.97;99409.59;5019962;28;20235;-69
2023/02/05 00:59:51;;;;;;;18.80;9.47;;;;;;;7.86;57.41;99404.13;5020179;28;20199;-69
2023/02/05 01:02:22;;;;;;;19.93;9.90;;;;;;;7.76;57.54;99401.16;5016592;28;20520;-69
2023/02/05 01:04:48;;;;;;;18.67;9.37;;;;;;;7.59;57.83;99404.66;5005690;28;20481;-70
2023/02/05 01:07:13;;;;;;;21.20;9.47;;;;;;;7.42;58.79;99401.16;5018413;28;20491;-70
2023/02/05 01:09:39;;;;;;;19.60;10.30;;;;;;;7.30;58.97;99397.41;5020527;28;20462;-69
2023/02/05 01:12:04;;;;;;;19.20;9.40;;;;;;;7.49;59.46;99401.69;5021026;28;20199;-69
2023/02/05 01:14:30;;;;;;;19.40;9.30;;;;;;;7.61;58.67;99397.59;5022467;28;20214;-69
2023/02/05 01:16:55;;;;;;;16.83;8.90;;;;;;;7.64;58.38;99397.44;5019617;28;20256;-69
2023/02/05 01:19:21;;;;;;;27.67;11.27;;;;;;;7.60;57.81;99394.16;5003960;28;20250;-69
2023/02/05 01:21:46;;;;;;;22.80;8.43;;;;;;;7.45;58.36;99394.94;5003091;28;20671;-70
2023/02/05 01:24:11;;;;;;;17.63;9.77;;;;;;;7.40;58.96;99392.56;5018279;28;20676;-69
2023/02/05 01:26:37;;;;;;;26.47;11.13;;;;;;;7.46;58.64;99388.78;5024663;28;20271;-70
2023/02/05 01:29:02;;;;;;;19.87;10.60;;;;;;;7.58;59.09;99387.28;5011260;28;20272;-69
2023/02/05 01:31:28;;;;;;;33.30;10.93;;;;;;;7.71;58.29;99388.34;5019337;28;20183;-70
2023/02/05 01:33:54;;;;;;;17.93;10.17;;;;;;;7.76;57.71;99388.97;5006567;28;20189;-70
2023/02/05 01:36:20;;;;;;;17.90;9.43;;;;;;;7.79;58.11;99383.56;5017295;28;20299;-71
2023/02/05 01:38:46;;;;;;;18.27;8.13;;;;;;;7.82;57.05;99382.56;5015086;28;20452;-69
2023/02/05 01:41:12;;;;;;;12.47;8.30;;;;;;;7.88;57.02;99381.41;5014032;28;20290;-69
2023/02/05 01:43:37;;;;;;;15.67;8.57;;;;;;;7.81;57.06;99376.47;5016373;28;20184;-69
2023/02/05 01:46:27;;;;;;;11.07;7.50;;;;;;;7.60;57.27;99372.41;5018922;28;21022;-70
2023/02/05 01:48:54;;;;;;;18.40;9.90;;;;;;;7.45;57.96;99369.66;4980237;28;20233;-70
2023/02/05 01:51:20;;;;;;;14.90;7.63;;;;;;;7.38;57.94;99366.53;5012860;28;20439;-70
2023/02/05 01:53:47;;;;;;;20.20;8.20;;;;;;;7.31;58.71;99359.13;4997667;28;20890;-71
2023/02/05 01:56:22;;;;;;;15.60;7.90;;;;;;;7.45;58.07;99354.00;5012042;28;20475;-70
2023/02/05 01:58:51;;;;;;;22.13;8.47;;;;;;;7.57;57.87;99349.94;4995230;28;21036;-68
2023/02/05 02:01:16;;;;;;;15.37;7.57;;;;;;;7.57;56.54;99356.91;5012231;28;20530;-70
2023/02/05 02:03:42;;;;;;;16.07;6.97;;;;;;;7.55;56.97;99353.56;5014133;28;20573;-71
2023/02/05 02:06:07;;;;;;;22.03;7.00;;;;;;;7.53;57.15;99341.41;5016265;28;20204;-70
2023/02/05 02:08:33;;;;;;;11.83;6.07;;;;;;;7.58;57.16;99345.53;5021396;28;20218;-70
2023/02/05 02:11:01;;;;;;;13.53;6.23;;;;;;;7.58;57.50;99342.94;5014580;28;20279;-71
2023/02/05 02:13:28;;;;;;;15.80;5.90;;;;;;;7.61;57.37;99342.78;5019154;28;20206;-70
2023/02/05 02:15:54;;;;;;;15.80;6.90;;;;;;;7.56;57.01;99331.75;4995598;28;20501;-70
2023/02/05 02:18:25;;;;;;;14.63;7.00;;;;;;;7.57;57.31;99330.78;5021251;28;20462;-69
2023/02/05 02:21:40;;;;;;;14.03;7.40;;;;;;;7.46;56.95;99328.78;4997782;28;20464;-69
2023/02/05 02:24:32;;;;;;;16.23;7.03;;;;;;;7.27;57.65;99326.28;4943610;28;20847;-70
2023/02/05 02:27:16;;;;;;;19.57;8.07;;;;;;;7.28;57.75;99331.41;5008620;28;20446;-70
2023/02/05 02:29:54;;;;;;;10.80;7.17;;;;;;;7.23;57.47;99323.81;5018105;28;20446;-69
2023/02/05 02:32:25;;;;;;;15.80;7.90;;;;;;;7.15;57.82;99327.75;4999640;28;20432;-69
2023/02/05 02:34:55;;;;;;;15.27;7.80;;;;;;;7.21;57.78;99320.44;4997061;28;20467;-69
2023/02/05 02:37:24;;;;;;;20.30;8.27;;;;;;;7.33;57.21;99318.13;5022441;28;20450;-70
2023/02/05 02:39:59;;;;;;;14.37;8.60;;;;;;;7.37;57.63;99311.84;5019317;28;20431;-69
2023/02/05 02:42:33;;;;;;;18.53;8.63;;;;;;;7.19;57.04;99322.28;5010305;28;20446;-70
2023/02/05 02:44:59;;;;;;;27.93;7.57;;;;;;;7.21;57.58;99315.22;5016739;28;20960;-69
2023/02/05 02:47:28;;;;;;;17.83;9.03;;;;;;;7.15;56.93;99312.94;5005316;28;20988;-70
2023/02/05 02:50:00;;;;;;;15.37;7.60;;;;;;;7.18;57.53;99320.59;4996107;28;20435;-69
2023/02/05 02:52:28;;;;;;;15.20;7.57;;;;;;;6.98;57.75;99324.25;5018411;28;20475;-70
2023/02/05 02:54:56;;;;;;;14.53;7.83;;;;;;;7.14;58.36;99318.22;5002924;28;20592;-70
2023/02/05 02:57:24;;;;;;;14.60;7.83;;;;;;;7.11;57.78;99298.38;5021243;28;21004;-69
2023/02/05 02:59:52;;;;;;;14.53;7.20;;;;;;;7.13;57.91;99300.88;5000881;28;20442;-70
2023/02/05 03:02:18;;;;;;;16.70;7.97;;;;;;;7.14;57.67;99292.16;4995335;28;20487;-70
2023/02/05 03:04:47;;;;;;;18.27;8.03;;;;;;;7.13;57.55;99293.94;4997286;28;21003;-69
2023/02/05 03:07:18;;;;;;;21.47;7.77;;;;;;;7.11;57.35;99298.38;5017953;28;20455;-69
2023/02/05 03:09:53;;;;;;;19.10;8.47;;;;;;;7.02;57.72;99289.25;5006359;28;20449;-67
2023/02/05 03:12:19;;;;;;;14.70;7.13;;;;;;;7.06;57.58;99290.78;4990411;28;20490;-67
2023/02/05 03:14:44;;;;;;;14.73;7.10;;;;;;;7.07;58.37;99291.63;4989154;28;20471;-67
2023/02/05 03:17:17;;;;;;;19.10;7.60;;;;;;;7.05;57.89;99298.69;4979451;28;20456;-67
2023/02/05 03:19:44;;;;;;;14.50;7.30;;;;;;;7.14;58.84;99298.22;5027985;28;20192;-67
2023/02/05 03:22:09;;;;;;;14.97;7.40;;;;;;;7.14;57.99;99293.00;5003495;28;20812;-68
2023/02/05 03:24:36;;;;;;;18.53;7.07;;;;;;;7.18;58.32;99299.72;5016665;28;20430;-70
2023/02/05 03:27:02;;;;;;;14.53;7.70;;;;;;;7.21;58.08;99293.53;5020640;28;20203;-68
2023/02/05 03:29:31;;;;;;;15.27;7.87;;;;;;;7.08;58.17;99298.53;5019091;28;20485;-70
2023/02/05 03:32:25;;;;;;;18.73;7.73;;;;;;;7.12;57.91;99294.03;5016344;28;20556;-69
2023/02/05 03:35:03;;;;;;;13.77;7.30;;;;;;;7.20;58.75;99284.84;5013646;28;20504;-69
2023/02/05 03:37:32;;;;;;;20.20;7.87;;;;;;;7.30;58.54;99290.44;5003245;28;20438;-69
2023/02/05 03:40:07;;;;;;;15.03;7.30;;;;;;;7.43;58.09;99287.19;5009205;28;20438;-70
2023/02/05 03:42:57;;;;;;;16.57;7.50;;;;;;;7.47;57.91;99279.09;5014244;28;20513;-68
2023/02/05 03:45:38;;;;;;;12.20;6.50;;;;;;;7.47;57.64;99267.84;5009011;28;20418;-70
2023/02/05 03:48:10;;;;;;;10.97;6.87;;;;;;;7.43;57.31;99263.69;5020349;28;20450;-70
2023/02/05 03:50:40;;;;;;;11.03;6.90;;;;;;;7.44;57.16;99266.22;5011967;28;20929;-69
2023/02/05 03:53:38;;;;;;;13.70;7.47;;;;;;;7.23;57.95;99266.44;4997803;28;20473;-68
2023/02/05 03:56:07;;;;;;;11.57;5.70;;;;;;;7.25;58.40;99274.16;5008211;28;20478;-69
2023/02/05 03:58:42;;;;;;;10.33;6.23;;;;;;;7.26;58.11;99267.22;4996769;28;20440;-70
2023/02/05 04:01:09;;;;;;;17.80;6.40;;;;;;;7.35;58.55;99266.72;5008610;28;20876;-69
2023/02/05 04:03:34;;;;;;;12.90;6.63;;;;;;;7.36;58.32;99261.44;4983747;28;20430;-67
2023/02/05 04:06:00;;;;;;;9.67;5.77;;;;;;;7.25;57.73;99265.50;4989965;28;20439;-69
2023/02/05 04:08:25;;;;;;;14.57;6.50;;;;;;;7.14;58.26;99263.47;5015147;28;20624;-70
2023/02/05 04:10:51;;;;;;;15.43;7.07;;;;;;;7.09;58.77;99250.66;5017417;28;20199;-69
2023/02/05 04:13:16;;;;;;;14.27;6.13;;;;;;;7.05;58.03;99257.81;5024889;28;20314;-69
2023/02/05 04:15:42;;;;;;;11.70;5.83;;;;;;;7.16;58.19;99259.88;5001790;28;20225;-70
2023/02/05 04:18:07;;;;;;;13.33;6.73;;;;;;;7.15;58.34;99258.19;5012255;28;20212;-69
2023/02/05 04:20:33;;;;;;;13.93;6.20;;;;;;;7.02;57.80;99257.97;5020489;28;20455;-69
2023/02/05 04:22:59;;;;;;;20.90;7.30;;;;;;;7.03;58.30;99259.66;5013679;28;20219;-70
2023/02/05 04:25:24;;;;;;;13.70;6.30;;;;;;;7.14;57.90;99251.28;5017291;28;20193;-70
2023/02/05 04:27:50;;;;;;;14.10;7.20;;;;;;;7.11;58.17;99245.38;5017456;28;20207;-69
2023/02/05 04:30:15;;;;;;;14.30;6.90;;;;;;;7.09;57.41;99253.28;5013813;28;20197;-69
2023/02/05 04:32:40;;;;;;;18.40;7.00;;;;;;;6.95;57.85;99258.34;5016886;28;20605;-69
2023/02/05 04:35:06;;;;;;;16.90;7.03;;;;;;;6.94;57.69;99251.44;4991842;28;20238;-68
2023/02/05 04:37:31;;;;;;;19.90;7.77;;;;;;;6.86;58.31;99262.31;5003268;28;20250;-70
2023/02/05 04:39:57;;;;;;;14.50;6.40;;;;;;;6.59;58.72;99258.38;5004034;28;20714;-69
2023/02/05 04:42:22;;;;;;;19.97;7.57;;;;;;;6.71;58.87;99256.94;5010647;28;20790;-70
2023/02/05 04:44:48;;;;;;;13.37;6.13;;;;;;;6.70;58.57;99254.41;5019235;28;20766;-70
2023/02/05 04:47:13;;;;;;;13.57;6.90;;;;;;;6.57;58.52;99252.41;5025442;28;20203;-69
2023/02/05 04:49:39;;;;;;;19.53;7.57;;;;;;;6.59;58.67;99261.00;4992471;28;20223;-69
2023/02/05 04:52:06;;;;;;;17.17;7.27;;;;;;;6.58;58.81;99269.72;5003771;28;20208;-69
2023/02/05 04:54:31;;;;;;;19.13;7.00;;;;;;;6.58;58.37;99263.69;4991575;28;20517;-68
2023/02/05 04:56:56;;;;;;;15.10;7.30;;;;;;;6.58;58.43;99255.88;5008987;28;20897;-69
2023/02/05 04:59:22;;;;;;;12.67;7.00;;;;;;;6.61;58.50;99261.75;4999372;28;20199;-69
2023/02/05 05:01:47;;;;;;;23.53;7.10;;;;;;;6.70;58.49;99249.19;4993012;28;20227;-69
2023/02/05 05:04:13;;;;;;;13.10;7.10;;;;;;;6.83;58.17;99263.28;5011210;28;20176;-68
2023/02/05 05:06:38;;;;;;;17.67;7.50;;;;;;;6.86;57.58;99255.31;5009749;28;20191;-68
2023/02/05 05:09:04;;;;;;;13.50;6.90;;;;;;;6.86;57.78;99255.31;5017487;28;20177;-69
2023/02/05 05:11:29;;;;;;;17.97;6.40;;;;;;;6.85;57.56;99256.22;5006477;28;20227;-70
2023/02/05 05:13:55;;;;;;;13.30;6.60;;;;;;;6.87;57.51;99258.75;5011390;28;20180;-70
2023/02/05 05:16:20;;;;;;;17.53;7.67;;;;;;;6.83;57.89;99268.50;5014281;28;20271;-69
2023/02/05 05:18:46;;;;;;;21.90;7.50;;;;;;;6.93;57.72;99270.66;5018511;28;20216;-70
2023/02/05 05:21:11;;;;;;;13.97;6.47;;;;;;;6.93;57.99;99271.47;5011443;28;20176;-68
2023/02/05 05:23:37;;;;;;;16.33;6.97;;;;;;;6.93;58.00;99270.66;5016654;28;20267;-68
2023/02/05 05:26:07;;;;;;;21.23;7.43;;;;;;;6.96;57.76;99262.66;5014167;28;20651;-70
2023/02/05 05:28:33;;;;;;;18.10;6.90;;;;;;;6.94;58.17;99273.16;5005724;28;20204;-69
2023/02/05 05:30:59;;;;;;;16.10;7.10;;;;;;;6.95;57.55;99276.59;5001014;28;20432;-69
2023/02/05 05:33:25;;;;;;;16.20;7.60;;;;;;;6.79;58.01;99272.19;5015528;28;20422;-69
2023/02/05 05:35:51;;;;;;;18.93;7.57;;;;;;;6.80;58.12;99260.84;4991022;28;20204;-68
2023/02/05 05:38:16;;;;;;;11.03;6.30;;;;;;;6.83;58.12;99267.66;5023199;28;20461;-68
2023/02/05 05:46:10;;;;;;;14.00;6.70;;;;;;;6.58;59.02;99274.13;5015471;28;20434;-69
2023/02/05 05:48:35;;;;;;;14.10;7.80;;;;;;;6.48;59.25;99271.09;5012294;28;20447;-70
2023/02/05 05:51:01;;;;;;;21.33;8.10;;;;;;;6.54;58.85;99263.00;4997662;28;20188;-67
2023/02/05 05:53:27;;;;;;;21.13;9.30;;;;;;;6.58;58.70;99263.69;5018969;28;20270;-68
2023/02/05 05:55:52;;;;;;;14.90;7.37;;;;;;;6.49;58.91;99270.19;4997570;28;20253;-70
2023/02/05 05:58:18;;;;;;;18.13;7.67;;;;;;;6.64;58.79;99272.97;5016476;28;20285;-69
2023/02/05 06:00:43;;;;;;;15.60;7.63;;;;;;;6.68;58.64;99264.06;4990842;28;20180;-69
2023/02/05 06:03:09;;;;;;;12.03;6.53;;;;;;;6.64;58.84;99249.50;5023679;28;20182;-69
2023/02/05 06:05:35;;;;;;;10.50;6.57;;;;;;;6.70;58.58;99241.38;5015772;28;20199;-68
2023/02/05 06:08:00;;;;;;;12.93;7.03;;;;;;;6.67;58.41;99237.16;5017450;28;20957;-67
2023/02/05 06:10:26;;;;;;;14.03;7.17;;;;;;;6.69;58.86;99244.88;5022436;28;20241;-69
2023/02/05 06:12:54;;;;;;;17.53;7.90;;;;;;;6.81;58.88;99249.47;5015209;28;20191;-69
2023/02/05 06:15:20;;;;;;;13.50;7.37;;;;;;;6.93;57.78;99252.41;5013424;28;20706;-69
2023/02/05 06:17:45;;;;;;;12.30;7.03;;;;;;;6.90;58.44;99261.19;5022735;28;20450;-70
2023/02/05 06:20:11;;;;;;;20.33;8.90;;;;;;;6.83;58.34;99260.66;5019587;28;20424;-69
2023/02/05 06:22:37;;;;;;;35.03;18.13;;;;;;;6.68;58.56;99253.66;5017965;28;20254;-69
2023/02/05 06:25:03;;;;;;;28.20;15.23;;;;;;;6.82;58.70;99250.34;5000403;28;20510;-69
2023/02/05 06:27:29;;;;;;;19.90;10.00;;;;;;;6.85;58.45;99260.63;5024790;28;20522;-69
2023/02/05 06:29:54;;;;;;;18.40;10.27;;;;;;;6.85;58.30;99261.44;5017984;28;20931;-69
2023/02/05 06:32:20;;;;;;;21.13;10.90;;;;;;;6.85;58.99;99271.88;5015417;28;20196;-70
2023/02/05 06:34:46;;;;;;;17.43;9.23;;;;;;;6.88;58.61;99266.50;5023358;28;20290;-69
2023/02/05 06:37:11;;;;;;;16.00;9.53;;;;;;;6.95;58.52;99266.19;5016678;28;20239;-69
2023/02/05 06:39:36;;;;;;;17.87;8.90;;;;;;;6.96;58.55;99265.25;4998034;28;20194;-69
2023/02/05 06:42:02;;;;;;;15.93;9.33;;;;;;;6.78;58.53;99262.69;5017655;28;20258;-68
2023/02/05 06:44:28;;;;;;;14.73;8.60;;;;;;;6.86;58.87;99255.31;5000309;28;20168;-70
2023/02/05 06:46:53;;;;;;;17.50;8.50;;;;;;;6.94;58.93;99254.06;5013576;28;20180;-70
2023/02/05 06:49:19;;;;;;;13.67;7.33;;;;;;;6.97;58.81;99269.56;5005858;28;20181;-71
2023/02/05 06:51:44;;;;;;;15.80;7.37;;;;;;;6.91;58.51;99263.75;5010986;28;20181;-69
2023/02/05 06:54:10;;;;;;;20.20;7.53;;;;;;;6.96;58.46;99260.91;4994142;28;20180;-70
2023/02/05 06:56:35;;;;;;;15.13;6.93;;;;;;;7.03;58.18;99267.47;5011398;28;20259;-70
2023/02/05 06:59:01;;;;;;;14.27;6.93;;;;;;;7.07;57.98;99265.53;5010030;28;20279;-69
2023/02/05 07:01:26;;;;;;;23.83;8.17;;;;;;;7.00;58.47;99258.97;5010264;28;20226;-69
2023/02/05 07:03:54;;;;;;;15.00;6.90;;;;;;;7.09;58.55;99263.69;5012490;28;20295;-69
2023/02/05 07:06:22;;;;;;;15.93;6.80;;;;;;;7.16;58.06;99270.31;5019197;28;20212;-68
2023/02/05 07:08:48;;;;;;;11.03;6.37;;;;;;;7.14;58.22;99272.16;5020619;28;20466;-68
2023/02/05 07:11:14;;;;;;;15.73;6.20;;;;;;;7.12;58.13;99270.53;5019138;28;20427;-69
2023/02/05 07:13:39;;;;;;;151.13;77.83;;;;;;;6.98;58.80;99282.53;5026097;28;20797;-68
2023/02/05 07:16:05;;;;;;;88.93;41.80;;;;;;;7.01;58.94;99278.91;5029732;28;20260;-69
2023/02/05 07:18:32;;;;;;;57.90;29.47;;;;;;;7.01;58.93;99279.75;5030603;28;20203;-69
2023/02/05 07:20:57;;;;;;;36.73;15.30;;;;;;;7.10;58.35;99282.81;5026988;28;20595;-69
2023/02/05 07:23:23;;;;;;;16.07;8.70;;;;;;;6.95;58.88;99276.59;5029978;28;20515;-70
2023/02/05 07:25:48;;;;;;;24.73;9.70;;;;;;;7.01;59.29;99276.31;5031261;28;20655;-70
2023/02/05 07:28:14;;;;;;;20.10;9.73;;;;;;;7.15;58.87;99275.56;5027738;28;20235;-69
2023/02/05 07:30:39;;;;;;;17.87;9.47;;;;;;;7.14;59.06;99277.34;5020164;28;20558;-70
2023/02/05 07:33:05;;;;;;;19.00;7.93;;;;;;;7.19;58.61;99272.72;5023407;28;20188;-69
2023/02/05 07:35:31;;;;;;;12.60;8.03;;;;;;;7.16;58.99;99264.22;5028516;28;20791;-69
2023/02/05 07:37:57;;;;;;;17.87;10.17;;;;;;;7.10;59.02;99261.94;5026310;28;20281;-69
2023/02/05 07:40:22;;;;;;;15.80;8.77;;;;;;;7.03;59.14;99259.66;5031071;28;20472;-70
2023/02/05 07:42:48;;;;;;;16.00;8.70;;;;;;;7.05;59.09;99254.38;5026994;28;20175;-69
2023/02/05 07:45:13;;;;;;;16.00;7.13;;;;;;;7.01;59.23;99255.44;5030677;28;20666;-68
2023/02/05 07:47:39;;;;;;;14.13;7.20;;;;;;;7.10;62.67;99243.69;5030732;28;20335;-69
2023/02/05 07:50:05;;;;;;;13.30;8.03;;;;;;;7.73;66.46;99242.91;5024383;28;20668;-71
2023/02/05 07:52:31;;;;;;;15.93;8.23;;;;;;;8.18;64.94;99247.44;5029014;28;20687;-70
2023/02/05 07:54:56;;;;;;;16.27;8.33;;;;;;;8.57;62.38;99233.00;5024606;28;20761;-70
2023/02/05 07:57:22;;;;;;;20.10;8.50;;;;;;;8.93;61.49;99230.94;5012738;28;20467;-70
2023/02/05 07:59:47;;;;;;;14.40;7.53;;;;;;;8.76;54.25;99232.78;5024238;28;20183;-70
2023/02/05 08:02:12;;;;;;;13.77;7.20;;;;;;;8.55;55.29;99240.97;5024839;28;20214;-70
2023/02/05 08:04:38;;;;;;;13.63;7.40;;;;;;;8.49;55.07;99235.25;4991342;28;20175;-70
2023/02/05 08:07:04;;;;;;;19.57;8.30;;;;;;;8.04;56.24;99238.63;5014254;28;20223;-71
2023/02/05 08:09:29;;;;;;;20.57;8.70;;;;;;;8.08;56.65;99242.72;5023639;28;20179;-71
2023/02/05 08:11:55;;;;;;;16.60;7.67;;;;;;;8.05;56.49;99237.69;5017487;28;20420;-71
2023/02/05 08:14:20;;;;;;;18.53;8.93;;;;;;;8.00;56.65;99234.47;5027737;28;20331;-70
2023/02/05 08:16:46;;;;;;;15.63;8.20;;;;;;;7.95;56.46;99241.72;5024563;28;20183;-69
2023/02/05 08:19:14;;;;;;;16.70;7.77;;;;;;;7.85;56.98;99244.03;5030955;28;20203;-69
2023/02/05 08:21:39;;;;;;;15.30;8.13;;;;;;;7.86;56.95;99244.84;5031174;28;20207;-70
2023/02/05 08:24:05;;;;;;;20.47;7.90;;;;;;;7.74;57.16;99236.78;5031968;28;20419;-70
2023/02/05 08:26:30;;;;;;;17.77;8.20;;;;;;;7.77;56.60;99239.22;5030551;28;20194;-70
2023/02/05 08:28:56;;;;;;;10.50;6.80;;;;;;;7.64;57.25;99231.22;5030800;28;20679;-69
2023/02/05 08:31:21;;;;;;;17.20;9.50;;;;;;;7.65;57.36;99245.13;5011888;28;20275;-67
2023/02/05 08:33:49;;;;;;;19.73;7.77;;;;;;;7.54;57.13;99237.88;5028649;28;20207;-71
2023/02/05 08:36:14;;;;;;;15.60;8.43;;;;;;;7.53;58.17;99234.44;5027669;28;20563;-70
2023/02/05 08:38:40;;;;;;;15.27;7.90;;;;;;;7.49;57.48;99230.28;5023923;28;20438;-69
2023/02/05 08:41:11;;;;;;;18.43;7.67;;;;;;;7.48;57.69;99228.59;5018128;28;20188;-71
2023/02/05 08:43:44;;;;;;;14.33;7.80;;;;;;;7.45;58.39;99233.97;5021577;28;20188;-69
2023/02/05 08:46:12;;;;;;;14.73;7.57;;;;;;;7.44;58.23;99231.47;4998898;28;20451;-70
2023/02/05 08:48:38;;;;;;;13.67;6.70;;;;;;;7.40;58.51;99230.78;5026423;28;20434;-69
2023/02/05 08:51:03;;;;;;;18.10;9.30;;;;;;;7.49;58.40;99222.47;5015550;28;20518;-68
2023/02/05 08:53:32;;;;;;;15.57;8.30;;;;;;;7.52;58.49;99214.47;5020446;28;20242;-70
2023/02/05 08:55:59;;;;;;;19.67;8.77;;;;;;;7.59;58.80;99208.91;5025939;28;20223;-68
2023/02/05 08:58:25;;;;;;;21.43;9.50;;;;;;;7.59;58.48;99201.06;5019755;28;20805;-70
2023/02/05 09:00:51;;;;;;;10.50;7.20;;;;;;;7.49;58.33;99193.75;5020578;28;20450;-68
2023/02/05 09:03:19;;;;;;;14.63;8.03;;;;;;;7.41;58.89;99190.72;5013844;28;20242;-69
2023/02/05 09:05:45;;;;;;;16.03;7.40;;;;;;;7.55;58.84;99189.13;4997729;28;20469;-68
2023/02/05 09:08:10;;;;;;;15.43;7.33;;;;;;;7.53;58.81;99184.84;5018279;28;20525;-69
2023/02/05 09:10:36;;;;;;;21.43;7.00;;;;;;;7.52;58.58;99177.94;5017528;28;20203;-69
2023/02/05 09:13:01;;;;;;;14.13;7.57;;;;;;;7.46;58.84;99175.66;5021624;28;20183;-69
2023/02/05 09:15:26;;;;;;;15.00;8.10;;;;;;;7.66;59.39;99178.94;5027615;28;20632;-69
2023/02/05 09:17:52;;;;;;;10.90;6.87;;;;;;;7.71;59.31;99182.13;5028168;28;20250;-71
2023/02/05 09:20:17;;;;;;;15.73;7.67;;;;;;;7.81;58.94;99178.06;5025159;28;20221;-70
2023/02/05 09:22:43;;;;;;;18.13;7.40;;;;;;;7.83;58.78;99181.44;5026006;28;20176;-69
2023/02/05 09:25:09;;;;;;;12.90;7.10;;;;;;;7.85;59.17;99170.91;5028282;28;20195;-70
2023/02/05 09:27:34;;;;;;;16.30;7.73;;;;;;;7.88;59.27;99175.13;5026212;28;20559;-72
2023/02/05 09:30:00;;;;;;;19.23;9.23;;;;;;;7.97;59.59;99180.66;5020854;28;20294;-70
2023/02/05 09:32:25;;;;;;;17.50;8.60;;;;;;;7.90;59.43;99171.47;5023367;28;20274;-69
2023/02/05 09:34:51;;;;;;;16.90;8.93;;;;;;;7.88;59.77;99164.66;5011162;28;20698;-71
2023/02/05 09:37:16;;;;;;;15.57;7.80;;;;;;;7.89;60.22;99163.75;5020321;28;20227;-70
2023/02/05 09:39:42;;;;;;;18.37;8.93;;;;;;;7.98;59.64;99160.59;5014865;28;20420;-70
2023/02/05 09:42:15;;;;;;;17.17;8.53;;;;;;;7.88;59.70;99156.84;4970214;28;20180;-69
2023/02/05 09:44:44;;;;;;;14.30;7.77;;;;;;;7.88;59.99;99141.19;5002129;28;20207;-69
2023/02/05 09:47:39;;;;;;;20.53;7.23;;;;;;;7.89;59.77;99142.84;5011030;28;20451;-70
2023/02/05 09:50:08;;;;;;;13.40;7.00;;;;;;;7.93;60.14;99147.00;5016285;28;20427;-70
2023/02/05 09:52:39;;;;;;;15.27;7.10;;;;;;;7.89;60.30;99135.03;5013079;28;20425;-71
2023/02/05 09:55:28;;;;;;;17.40;7.33;;;;;;;7.90;60.60;99134.09;4996962;28;20498;-70
2023/02/05 09:57:58;;;;;;;12.63;6.13;;;;;;;8.01;60.51;99136.94;5011471;28;20953;-69
2023/02/05 10:00:29;;;;;;;16.50;6.83;;;;;;;8.03;60.03;99142.91;4995699;28;20510;-69
2023/02/05 10:03:23;;;;;;;9.80;5.80;;;;;;;8.13;59.38;99127.53;5014153;28;20431;-70
2023/02/05 10:06:11;;;;;;;11.63;5.40;;;;;;;8.17;59.72;99139.47;5017627;28;21169;-71
2023/02/05 10:08:39;;;;;;;19.90;8.20;;;;;;;8.13;60.09;99128.38;5000490;28;20477;-71
2023/02/05 10:11:18;;;;;;;17.83;6.80;;;;;;;8.17;60.23;99136.88;4997648;28;20987;-70
2023/02/05 10:13:44;;;;;;;13.40;6.80;;;;;;;8.22;60.81;99131.38;5008405;28;20426;-72
2023/02/05 10:16:27;;;;;;;17.10;7.70;;;;;;;8.19;60.35;99135.03;5018828;28;20541;-70
2023/02/05 10:19:03;;;;;;;21.93;8.83;;;;;;;8.22;60.76;99128.75;5024357;28;20805;-70
2023/02/05 10:21:51;;;;;;;17.00;8.00;;;;;;;8.30;60.70;99123.94;4999286;28;20422;-72
2023/02/05 10:24:19;;;;;;;15.03;6.00;;;;;;;8.30;59.39;99113.50;5022623;28;20438;-69
2023/02/05 10:26:44;;;;;;;14.30;6.47;;;;;;;8.36;59.67;99120.13;5023697;28;20476;-70
2023/02/05 10:29:26;;;;;;;17.30;6.70;;;;;;;8.32;60.02;99119.44;5021916;28;20926;-69
2023/02/05 10:31:54;;;;;;;11.90;6.80;;;;;;;8.36;61.05;99120.94;4979213;28;20720;-70
2023/02/05 10:34:51;;;;;;;17.93;7.00;;;;;;;8.39;61.00;99110.31;5016312;28;20477;-72
2023/02/05 10:37:27;;;;;;;19.83;6.70;;;;;;;8.49;60.30;99107.19;5020103;28;20450;-70
2023/02/05 10:39:54;;;;;;;9.77;6.10;;;;;;;8.45;60.42;99104.72;5016229;28;20992;-69
2023/02/05 10:42:45;;;;;;;15.90;6.37;;;;;;;8.46;60.63;99101.16;5000191;28;20953;-70
2023/02/05 10:45:10;;;;;;;15.17;6.23;;;;;;;8.54;60.23;99082.44;4997744;28;20424;-71
2023/02/05 10:47:50;;;;;;;13.40;6.70;;;;;;;8.54;60.24;99073.78;5021756;28;20860;-72
2023/02/05 10:50:26;;;;;;;12.50;7.13;;;;;;;8.58;60.17;99083.09;4998592;28;20184;-71
2023/02/05 10:52:51;;;;;;;18.30;6.47;;;;;;;8.63;60.55;99080.22;4996981;28;20454;-71
2023/02/05 10:55:17;;;;;;;11.47;7.10;;;;;;;8.66;60.78;99070.41;5027251;28;20453;-70
2023/02/05 10:57:42;;;;;;;16.87;6.73;;;;;;;8.69;60.94;99072.84;5011310;28;20200;-70
2023/02/05 11:00:26;;;;;;;14.13;6.20;;;;;;;8.67;59.69;99082.56;5025340;28;20208;-69
2023/02/05 11:02:53;;;;;;;14.10;6.77;;;;;;;8.75;60.13;99077.69;5024408;28;20172;-70
2023/02/05 11:05:31;;;;;;;19.13;6.13;;;;;;;8.75;59.74;99077.69;5019757;28;21001;-69
2023/02/05 11:07:57;;;;;;;15.30;6.70;;;;;;;8.74;60.64;99077.78;5010268;28;20473;-71
2023/02/05 11:10:27;;;;;;;23.23;7.90;;;;;;;8.74;60.78;99078.63;5013980;28;20832;-70
2023/02/05 11:12:56;;;;;;;17.00;6.97;;;;;;;8.69;60.47;99078.06;5022239;28;20874;-69
2023/02/05 11:15:30;;;;;;;10.83;6.53;;;;;;;8.71;60.12;99068.34;5027647;28;21004;-71
2023/02/05 11:17:59;;;;;;;18.07;6.90;;;;;;;8.69;60.80;99067.63;4988902;28;21280;-70
2023/02/05 11:20:36;;;;;;;18.00;6.53;;;;;;;8.67;60.98;99066.88;5025971;28;20434;-71
2023/02/05 11:23:28;;;;;;;16.93;6.30;;;;;;;8.66;60.31;99069.56;5023402;28;20422;-71
2023/02/05 11:25:59;;;;;;;11.80;5.93;;;;;;;8.60;60.29;99060.31;5021867;28;20426;-72
2023/02/05 11:28:29;;;;;;;19.80;7.57;;;;;;;8.62;61.16;99047.19;5028983;28;20835;-70
2023/02/05 11:30:55;;;;;;;19.10;6.17;;;;;;;8.63;60.89;99049.69;5012422;28;20471;-70
2023/02/05 11:33:20;;;;;;;12.13;6.83;;;;;;;8.64;60.92;99035.69;5002560;28;20451;-69
2023/02/05 11:36:03;;;;;;;11.87;6.80;;;;;;;8.72;60.65;99037.81;5023996;28;20978;-71
2023/02/05 11:38:41;;;;;;;17.73;6.83;;;;;;;8.78;60.61;99036.59;5007920;28;20214;-71
2023/02/05 11:41:07;;;;;;;14.50;6.90;;;;;;;8.79;60.37;99038.28;5001621;28;20819;-71
2023/02/05 11:43:40;;;;;;;14.63;7.87;;;;;;;8.81;61.33;99032.00;5017946;28;20431;-69